Terminal Aerodrome Forecast
Issued by NWS

Home | Current Version | Previous Version | Graphics & Text | Print | Product List | Glossary On
Versions: 1 2 3 4 5 6 7 8 9 10 11 12 13 14 15 16 17 18 19 20 21 22 23 24 25 26 27 28 29
028
FTUS43 KLOT 242100 AAB
TAFORD
TAF AMD
KORD 242100Z 2421/2524 22015G23KT P6SM VCTS BKN040CB
      TEMPO 2421/2423 2SM TSRA BKN025 OVC040CB
     FM250000 26012G20KT P6SM SCT025
     FM250200 29008KT P6SM BKN200
     FM250600 30007KT P6SM SCT200
     FM251400 33008KT P6SM SCT250=

USA.gov is the U.S. government's official web portal to all federal, state and local government web resources and services.